sensor_id;sensor_type;location;lat;lon;timestamp;P1;durP1;ratioP1;P2;durP2;ratioP2
21780;SDS011;52576;53.614;9.894;2022-08-21T00:00:27;14.10;;;5.55;;
21780;SDS011;52576;53.614;9.894;2022-08-21T00:01:32;15.50;;;5.10;;
21780;SDS011;52576;53.614;9.894;2022-08-21T00:02:35;15.57;;;5.60;;
21780;SDS011;52576;53.614;9.894;2022-08-21T00:03:39;10.40;;;5.53;;
21780;SDS011;52576;53.614;9.894;2022-08-21T00:04:42;13.20;;;5.57;;
21780;SDS011;52576;53.614;9.894;2022-08-21T00:05:57;12.35;;;5.72;;
21780;SDS011;52576;53.614;9.894;2022-08-21T00:07:00;13.85;;;5.38;;
21780;SDS011;52576;53.614;9.894;2022-08-21T00:08:03;12.60;;;5.10;;
21780;SDS011;52576;53.614;9.894;2022-08-21T00:09:07;11.35;;;5.07;;
21780;SDS011;52576;53.614;9.894;2022-08-21T00:10:10;15.32;;;5.40;;
21780;SDS011;52576;53.614;9.894;2022-08-21T00:11:14;10.35;;;5.28;;
21780;SDS011;52576;53.614;9.894;2022-08-21T00:12:16;12.63;;;5.53;;
21780;SDS011;52576;53.614;9.894;2022-08-21T00:13:20;11.18;;;4.93;;
21780;SDS011;52576;53.614;9.894;2022-08-21T00:14:22;11.73;;;5.28;;
21780;SDS011;52576;53.614;9.894;2022-08-21T00:15:26;12.95;;;5.00;;
21780;SDS011;52576;53.614;9.894;2022-08-21T00:16:30;11.43;;;4.65;;
21780;SDS011;52576;53.614;9.894;2022-08-21T00:17:33;10.70;;;4.82;;
21780;SDS011;52576;53.614;9.894;2022-08-21T00:18:37;12.75;;;5.00;;
21780;SDS011;52576;53.614;9.894;2022-08-21T00:19:40;10.70;;;4.75;;
21780;SDS011;52576;53.614;9.894;2022-08-21T00:20:43;9.48;;;4.63;;
21780;SDS011;52576;53.614;9.894;2022-08-21T00:21:47;10.98;;;4.68;;
21780;SDS011;52576;53.614;9.894;2022-08-21T00:22:49;9.25;;;4.63;;
21780;SDS011;52576;53.614;9.894;2022-08-21T00:23:53;13.23;;;4.78;;
21780;SDS011;52576;53.614;9.894;2022-08-21T00:24:55;7.82;;;4.50;;
21780;SDS011;52576;53.614;9.894;2022-08-21T00:25:58;10.15;;;4.20;;
21780;SDS011;52576;53.614;9.894;2022-08-21T00:27:01;10.50;;;4.65;;
21780;SDS011;52576;53.614;9.894;2022-08-21T00:28:04;11.43;;;4.78;;
21780;SDS011;52576;53.614;9.894;2022-08-21T00:29:07;12.55;;;4.88;;
21780;SDS011;52576;53.614;9.894;2022-08-21T00:30:11;9.50;;;4.47;;
21780;SDS011;52576;53.614;9.894;2022-08-21T00:31:23;15.50;;;5.05;;
21780;SDS011;52576;53.614;9.894;2022-08-21T00:32:27;8.57;;;4.10;;
21780;SDS011;52576;53.614;9.894;2022-08-21T00:33:31;9.52;;;4.63;;
21780;SDS011;52576;53.614;9.894;2022-08-21T00:34:34;10.35;;;5.07;;
21780;SDS011;52576;53.614;9.894;2022-08-21T00:35:37;10.88;;;5.82;;
21780;SDS011;52576;53.614;9.894;2022-08-21T00:36:42;15.88;;;7.10;;
21780;SDS011;52576;53.614;9.894;2022-08-21T00:37:44;14.27;;;5.88;;
21780;SDS011;52576;53.614;9.894;2022-08-21T00:38:47;12.73;;;6.95;;
21780;SDS011;52576;53.614;9.894;2022-08-21T00:39:50;14.43;;;8.00;;
21780;SDS011;52576;53.614;9.894;2022-08-21T00:40:54;11.60;;;5.20;;
21780;SDS011;52576;53.614;9.894;2022-08-21T00:42:03;8.95;;;4.50;;
21780;SDS011;52576;53.614;9.894;2022-08-21T00:43:07;9.32;;;4.40;;
21780;SDS011;52576;53.614;9.894;2022-08-21T00:44:12;9.02;;;4.30;;
21780;SDS011;52576;53.614;9.894;2022-08-21T00:45:16;9.27;;;4.40;;
21780;SDS011;52576;53.614;9.894;2022-08-21T00:46:18;9.85;;;3.75;;
21780;SDS011;52576;53.614;9.894;2022-08-21T00:47:25;8.85;;;4.18;;
21780;SDS011;52576;53.614;9.894;2022-08-21T00:48:27;9.80;;;3.83;;
21780;SDS011;52576;53.614;9.894;2022-08-21T00:49:32;9.07;;;4.22;;
21780;SDS011;52576;53.614;9.894;2022-08-21T00:50:35;10.63;;;4.03;;
21780;SDS011;52576;53.614;9.894;2022-08-21T00:51:43;10.57;;;4.15;;
21780;SDS011;52576;53.614;9.894;2022-08-21T00:52:49;7.93;;;3.95;;
21780;SDS011;52576;53.614;9.894;2022-08-21T00:53:54;8.98;;;3.65;;
21780;SDS011;52576;53.614;9.894;2022-08-21T00:54:59;10.55;;;3.90;;
21780;SDS011;52576;53.614;9.894;2022-08-21T00:56:04;8.95;;;4.13;;
21780;SDS011;52576;53.614;9.894;2022-08-21T00:57:13;8.60;;;4.35;;
21780;SDS011;52576;53.614;9.894;2022-08-21T00:58:18;8.65;;;3.72;;
21780;SDS011;52576;53.614;9.894;2022-08-21T00:59:23;9.90;;;3.92;;
21780;SDS011;52576;53.614;9.894;2022-08-21T01:00:30;12.15;;;4.13;;
21780;SDS011;52576;53.614;9.894;2022-08-21T01:01:34;10.40;;;3.55;;
21780;SDS011;52576;53.614;9.894;2022-08-21T01:02:38;10.20;;;3.90;;
21780;SDS011;52576;53.614;9.894;2022-08-21T01:03:41;9.57;;;3.35;;
21780;SDS011;52576;53.614;9.894;2022-08-21T01:04:47;9.68;;;3.97;;
21780;SDS011;52576;53.614;9.894;2022-08-21T01:05:49;9.23;;;3.47;;
21780;SDS011;52576;53.614;9.894;2022-08-21T01:06:53;15.35;;;3.80;;
21780;SDS011;52576;53.614;9.894;2022-08-21T01:07:56;11.05;;;3.60;;
21780;SDS011;52576;53.614;9.894;2022-08-21T01:08:59;10.63;;;3.35;;
21780;SDS011;52576;53.614;9.894;2022-08-21T01:10:02;9.88;;;3.08;;
21780;SDS011;52576;53.614;9.894;2022-08-21T01:11:06;8.70;;;3.30;;
21780;SDS011;52576;53.614;9.894;2022-08-21T01:12:09;7.70;;;3.03;;
21780;SDS011;52576;53.614;9.894;2022-08-21T01:13:13;8.52;;;3.38;;
21780;SDS011;52576;53.614;9.894;2022-08-21T01:14:20;8.15;;;3.35;;
21780;SDS011;52576;53.614;9.894;2022-08-21T01:15:25;9.40;;;3.33;;
21780;SDS011;52576;53.614;9.894;2022-08-21T01:16:31;6.80;;;2.97;;
21780;SDS011;52576;53.614;9.894;2022-08-21T01:17:36;8.52;;;3.30;;
21780;SDS011;52576;53.614;9.894;2022-08-21T01:18:38;9.88;;;3.25;;
21780;SDS011;52576;53.614;9.894;2022-08-21T01:19:42;8.18;;;3.20;;
21780;SDS011;52576;53.614;9.894;2022-08-21T01:22:18;10.18;;;3.50;;
21780;SDS011;52576;53.614;9.894;2022-08-21T01:23:21;9.35;;;3.42;;
21780;SDS011;52576;53.614;9.894;2022-08-21T01:24:24;8.20;;;3.25;;
21780;SDS011;52576;53.614;9.894;2022-08-21T01:25:26;11.75;;;3.40;;
21780;SDS011;52576;53.614;9.894;2022-08-21T01:26:30;8.07;;;3.38;;
21780;SDS011;52576;53.614;9.894;2022-08-21T01:27:36;8.32;;;3.53;;
21780;SDS011;52576;53.614;9.894;2022-08-21T01:28:40;8.55;;;3.42;;
21780;SDS011;52576;53.614;9.894;2022-08-21T01:29:46;8.88;;;3.30;;
21780;SDS011;52576;53.614;9.894;2022-08-21T01:30:56;8.30;;;3.30;;
21780;SDS011;52576;53.614;9.894;2022-08-21T01:32:02;8.13;;;3.30;;
21780;SDS011;52576;53.614;9.894;2022-08-21T01:33:07;9.00;;;3.42;;
21780;SDS011;52576;53.614;9.894;2022-08-21T01:34:11;7.25;;;3.20;;
21780;SDS011;52576;53.614;9.894;2022-08-21T01:35:15;10.10;;;3.70;;
21780;SDS011;52576;53.614;9.894;2022-08-21T01:36:19;9.73;;;3.38;;
21780;SDS011;52576;53.614;9.894;2022-08-21T01:37:25;7.97;;;3.58;;
21780;SDS011;52576;53.614;9.894;2022-08-21T01:38:27;7.93;;;3.25;;
21780;SDS011;52576;53.614;9.894;2022-08-21T01:39:31;5.85;;;3.20;;
21780;SDS011;52576;53.614;9.894;2022-08-21T01:40:34;9.60;;;3.55;;
21780;SDS011;52576;53.614;9.894;2022-08-21T01:41:37;10.27;;;3.72;;
21780;SDS011;52576;53.614;9.894;2022-08-21T01:42:39;8.75;;;3.88;;
21780;SDS011;52576;53.614;9.894;2022-08-21T01:43:44;12.20;;;3.55;;
21780;SDS011;52576;53.614;9.894;2022-08-21T01:44:46;9.15;;;3.70;;
21780;SDS011;52576;53.614;9.894;2022-08-21T01:45:55;10.32;;;3.70;;
21780;SDS011;52576;53.614;9.894;2022-08-21T01:46:57;9.35;;;3.33;;
21780;SDS011;52576;53.614;9.894;2022-08-21T01:48:02;9.85;;;3.55;;
21780;SDS011;52576;53.614;9.894;2022-08-21T01:49:05;7.70;;;3.92;;
21780;SDS011;52576;53.614;9.894;2022-08-21T01:50:10;9.88;;;3.55;;
21780;SDS011;52576;53.614;9.894;2022-08-21T01:51:17;10.55;;;3.75;;
21780;SDS011;52576;53.614;9.894;2022-08-21T01:52:21;8.80;;;3.60;;
21780;SDS011;52576;53.614;9.894;2022-08-21T01:53:25;7.95;;;3.75;;
21780;SDS011;52576;53.614;9.894;2022-08-21T01:54:34;6.82;;;3.20;;
21780;SDS011;52576;53.614;9.894;2022-08-21T01:55:37;8.05;;;3.65;;
21780;SDS011;52576;53.614;9.894;2022-08-21T01:56:41;8.35;;;3.47;;
21780;SDS011;52576;53.614;9.894;2022-08-21T01:57:48;8.10;;;3.35;;
21780;SDS011;52576;53.614;9.894;2022-08-21T01:58:52;8.57;;;3.67;;
21780;SDS011;52576;53.614;9.894;2022-08-21T01:59:55;14.32;;;3.75;;
21780;SDS011;52576;53.614;9.894;2022-08-21T02:00:57;9.10;;;3.85;;
21780;SDS011;52576;53.614;9.894;2022-08-21T02:02:00;11.52;;;3.67;;
21780;SDS011;52576;53.614;9.894;2022-08-21T02:03:02;7.10;;;3.45;;
21780;SDS011;52576;53.614;9.894;2022-08-21T02:04:06;6.75;;;3.38;;
21780;SDS011;52576;53.614;9.894;2022-08-21T02:05:09;7.20;;;3.58;;
21780;SDS011;52576;53.614;9.894;2022-08-21T02:06:14;8.48;;;3.28;;
21780;SDS011;52576;53.614;9.894;2022-08-21T02:07:19;10.52;;;3.40;;
21780;SDS011;52576;53.614;9.894;2022-08-21T02:08:22;7.93;;;3.25;;
21780;SDS011;52576;53.614;9.894;2022-08-21T02:09:26;7.55;;;3.33;;
21780;SDS011;52576;53.614;9.894;2022-08-21T02:10:31;12.25;;;3.65;;
21780;SDS011;52576;53.614;9.894;2022-08-21T02:11:34;10.90;;;3.60;;
21780;SDS011;52576;53.614;9.894;2022-08-21T02:12:38;8.80;;;3.40;;
21780;SDS011;52576;53.614;9.894;2022-08-21T02:13:40;11.57;;;3.63;;
21780;SDS011;52576;53.614;9.894;2022-08-21T02:14:43;6.95;;;3.33;;
21780;SDS011;52576;53.614;9.894;2022-08-21T02:15:45;6.90;;;3.50;;
21780;SDS011;52576;53.614;9.894;2022-08-21T02:16:49;8.68;;;3.22;;
21780;SDS011;52576;53.614;9.894;2022-08-21T02:18:05;9.32;;;3.60;;
21780;SDS011;52576;53.614;9.894;2022-08-21T02:19:09;11.43;;;3.92;;
21780;SDS011;52576;53.614;9.894;2022-08-21T02:20:15;7.80;;;3.58;;
21780;SDS011;52576;53.614;9.894;2022-08-21T02:21:19;11.20;;;3.88;;
21780;SDS011;52576;53.614;9.894;2022-08-21T02:22:23;6.90;;;3.35;;
21780;SDS011;52576;53.614;9.894;2022-08-21T02:23:25;8.93;;;3.58;;
21780;SDS011;52576;53.614;9.894;2022-08-21T02:24:29;10.55;;;3.38;;
21780;SDS011;52576;53.614;9.894;2022-08-21T02:25:31;8.13;;;3.40;;
21780;SDS011;52576;53.614;9.894;2022-08-21T02:26:35;7.57;;;3.38;;
21780;SDS011;52576;53.614;9.894;2022-08-21T02:27:38;8.98;;;3.08;;
21780;SDS011;52576;53.614;9.894;2022-08-21T02:28:43;6.43;;;3.30;;
21780;SDS011;52576;53.614;9.894;2022-08-21T02:29:46;9.07;;;3.45;;
21780;SDS011;52576;53.614;9.894;2022-08-21T02:30:49;8.50;;;3.22;;
21780;SDS011;52576;53.614;9.894;2022-08-21T02:31:53;6.50;;;3.47;;
21780;SDS011;52576;53.614;9.894;2022-08-21T02:32:56;7.90;;;3.25;;
21780;SDS011;52576;53.614;9.894;2022-08-21T02:34:00;8.07;;;3.20;;
21780;SDS011;52576;53.614;9.894;2022-08-21T02:35:03;9.73;;;3.60;;
21780;SDS011;52576;53.614;9.894;2022-08-21T02:36:07;8.70;;;3.70;;
21780;SDS011;52576;53.614;9.894;2022-08-21T02:37:12;7.78;;;3.17;;
21780;SDS011;52576;53.614;9.894;2022-08-21T02:38:16;11.52;;;3.35;;
21780;SDS011;52576;53.614;9.894;2022-08-21T02:39:21;8.80;;;3.55;;
21780;SDS011;52576;53.614;9.894;2022-08-21T02:40:30;8.90;;;3.63;;
21780;SDS011;52576;53.614;9.894;2022-08-21T02:41:36;14.55;;;3.60;;
21780;SDS011;52576;53.614;9.894;2022-08-21T02:42:38;8.38;;;3.17;;
21780;SDS011;52576;53.614;9.894;2022-08-21T02:43:41;11.32;;;3.70;;
21780;SDS011;52576;53.614;9.894;2022-08-21T02:44:44;11.85;;;3.53;;
21780;SDS011;52576;53.614;9.894;2022-08-21T02:45:48;10.25;;;3.10;;
21780;SDS011;52576;53.614;9.894;2022-08-21T02:46:51;8.75;;;3.30;;
21780;SDS011;52576;53.614;9.894;2022-08-21T02:47:55;8.55;;;3.50;;
21780;SDS011;52576;53.614;9.894;2022-08-21T02:48:59;7.38;;;3.40;;
21780;SDS011;52576;53.614;9.894;2022-08-21T02:50:03;6.80;;;3.47;;
21780;SDS011;52576;53.614;9.894;2022-08-21T02:51:07;9.13;;;3.55;;
21780;SDS011;52576;53.614;9.894;2022-08-21T02:52:12;6.18;;;3.40;;
21780;SDS011;52576;53.614;9.894;2022-08-21T02:53:16;8.70;;;3.58;;
21780;SDS011;52576;53.614;9.894;2022-08-21T02:54:19;6.95;;;3.38;;
21780;SDS011;52576;53.614;9.894;2022-08-21T02:55:22;8.63;;;3.50;;
21780;SDS011;52576;53.614;9.894;2022-08-21T02:56:29;11.15;;;3.72;;
21780;SDS011;52576;53.614;9.894;2022-08-21T02:57:32;8.65;;;3.17;;
21780;SDS011;52576;53.614;9.894;2022-08-21T02:58:36;9.30;;;3.50;;
21780;SDS011;52576;53.614;9.894;2022-08-21T02:59:41;9.57;;;3.25;;
21780;SDS011;52576;53.614;9.894;2022-08-21T03:00:45;8.27;;;2.95;;
21780;SDS011;52576;53.614;9.894;2022-08-21T03:01:47;10.82;;;3.25;;
21780;SDS011;52576;53.614;9.894;2022-08-21T03:02:50;9.43;;;3.47;;
21780;SDS011;52576;53.614;9.894;2022-08-21T03:03:54;8.70;;;3.40;;
21780;SDS011;52576;53.614;9.894;2022-08-21T03:04:58;8.50;;;3.00;;
21780;SDS011;52576;53.614;9.894;2022-08-21T03:06:00;7.03;;;3.08;;
21780;SDS011;52576;53.614;9.894;2022-08-21T03:07:03;9.13;;;3.15;;
21780;SDS011;52576;53.614;9.894;2022-08-21T03:08:13;7.93;;;3.00;;
21780;SDS011;52576;53.614;9.894;2022-08-21T03:09:17;6.30;;;3.00;;
21780;SDS011;52576;53.614;9.894;2022-08-21T03:10:20;10.70;;;2.92;;
21780;SDS011;52576;53.614;9.894;2022-08-21T03:11:24;7.03;;;2.92;;
21780;SDS011;52576;53.614;9.894;2022-08-21T03:12:29;6.63;;;2.90;;
21780;SDS011;52576;53.614;9.894;2022-08-21T03:13:31;8.85;;;3.08;;
21780;SDS011;52576;53.614;9.894;2022-08-21T03:14:35;9.45;;;3.08;;
21780;SDS011;52576;53.614;9.894;2022-08-21T03:15:37;8.18;;;2.58;;
21780;SDS011;52576;53.614;9.894;2022-08-21T03:16:41;6.28;;;2.97;;
21780;SDS011;52576;53.614;9.894;2022-08-21T03:17:44;7.72;;;2.90;;
21780;SDS011;52576;53.614;9.894;2022-08-21T03:18:47;7.50;;;3.05;;
21780;SDS011;52576;53.614;9.894;2022-08-21T03:19:50;8.80;;;3.10;;
21780;SDS011;52576;53.614;9.894;2022-08-21T03:20:53;7.47;;;2.53;;
21780;SDS011;52576;53.614;9.894;2022-08-21T03:21:56;7.80;;;3.10;;
21780;SDS011;52576;53.614;9.894;2022-08-21T03:22:58;9.32;;;2.80;;
21780;SDS011;52576;53.614;9.894;2022-08-21T03:24:03;7.53;;;2.85;;
21780;SDS011;52576;53.614;9.894;2022-08-21T03:25:07;8.52;;;2.78;;
21780;SDS011;52576;53.614;9.894;2022-08-21T03:26:13;10.23;;;2.90;;
21780;SDS011;52576;53.614;9.894;2022-08-21T03:27:16;10.20;;;3.30;;
21780;SDS011;52576;53.614;9.894;2022-08-21T03:28:23;11.45;;;3.13;;
21780;SDS011;52576;53.614;9.894;2022-08-21T03:29:26;6.28;;;3.00;;
21780;SDS011;52576;53.614;9.894;2022-08-21T03:30:29;6.88;;;3.22;;
21780;SDS011;52576;53.614;9.894;2022-08-21T03:31:32;7.25;;;3.10;;
21780;SDS011;52576;53.614;9.894;2022-08-21T03:32:35;7.57;;;2.80;;
21780;SDS011;52576;53.614;9.894;2022-08-21T03:33:38;7.65;;;2.95;;
21780;SDS011;52576;53.614;9.894;2022-08-21T03:34:41;8.02;;;3.15;;
21780;SDS011;52576;53.614;9.894;2022-08-21T03:35:44;8.02;;;3.00;;
21780;SDS011;52576;53.614;9.894;2022-08-21T03:36:50;8.82;;;3.00;;
21780;SDS011;52576;53.614;9.894;2022-08-21T03:37:53;8.18;;;3.05;;
21780;SDS011;52576;53.614;9.894;2022-08-21T03:38:56;7.15;;;3.35;;
21780;SDS011;52576;53.614;9.894;2022-08-21T03:39:59;6.63;;;2.97;;
21780;SDS011;52576;53.614;9.894;2022-08-21T03:41:02;10.85;;;3.17;;
21780;SDS011;52576;53.614;9.894;2022-08-21T03:42:06;7.25;;;3.05;;
21780;SDS011;52576;53.614;9.894;2022-08-21T03:43:08;7.53;;;2.97;;
21780;SDS011;52576;53.614;9.894;2022-08-21T03:44:13;6.05;;;2.65;;
21780;SDS011;52576;53.614;9.894;2022-08-21T03:45:16;8.88;;;3.22;;
21780;SDS011;52576;53.614;9.894;2022-08-21T03:46:20;6.63;;;2.95;;
21780;SDS011;52576;53.614;9.894;2022-08-21T03:47:23;7.95;;;2.97;;
21780;SDS011;52576;53.614;9.894;2022-08-21T03:48:32;8.15;;;3.20;;
21780;SDS011;52576;53.614;9.894;2022-08-21T03:49:35;10.43;;;3.20;;
21780;SDS011;52576;53.614;9.894;2022-08-21T03:50:39;10.93;;;3.50;;
21780;SDS011;52576;53.614;9.894;2022-08-21T03:51:43;8.40;;;3.28;;
21780;SDS011;52576;53.614;9.894;2022-08-21T03:52:47;7.95;;;2.90;;
21780;SDS011;52576;53.614;9.894;2022-08-21T03:53:49;10.45;;;2.97;;
21780;SDS011;52576;53.614;9.894;2022-08-21T03:54:52;6.22;;;2.90;;
21780;SDS011;52576;53.614;9.894;2022-08-21T03:55:54;9.70;;;3.10;;
21780;SDS011;52576;53.614;9.894;2022-08-21T03:56:58;6.95;;;2.65;;
21780;SDS011;52576;53.614;9.894;2022-08-21T03:58:00;6.55;;;2.90;;
21780;SDS011;52576;53.614;9.894;2022-08-21T03:59:19;6.75;;;3.15;;
21780;SDS011;52576;53.614;9.894;2022-08-21T04:00:23;6.50;;;3.03;;
21780;SDS011;52576;53.614;9.894;2022-08-21T04:01:26;6.20;;;2.95;;
21780;SDS011;52576;53.614;9.894;2022-08-21T04:02:29;10.23;;;3.40;;
21780;SDS011;52576;53.614;9.894;2022-08-21T04:03:32;9.57;;;3.33;;
21780;SDS011;52576;53.614;9.894;2022-08-21T04:04:37;8.00;;;2.90;;
21780;SDS011;52576;53.614;9.894;2022-08-21T04:05:39;6.82;;;2.80;;
21780;SDS011;52576;53.614;9.894;2022-08-21T04:06:42;8.77;;;3.38;;
21780;SDS011;52576;53.614;9.894;2022-08-21T04:07:45;8.15;;;3.20;;
21780;SDS011;52576;53.614;9.894;2022-08-21T04:08:48;9.07;;;3.33;;
21780;SDS011;52576;53.614;9.894;2022-08-21T04:09:50;5.80;;;2.90;;
21780;SDS011;52576;53.614;9.894;2022-08-21T04:10:54;7.20;;;2.95;;
21780;SDS011;52576;53.614;9.894;2022-08-21T04:11:58;6.68;;;3.03;;
21780;SDS011;52576;53.614;9.894;2022-08-21T04:13:02;9.05;;;2.92;;
21780;SDS011;52576;53.614;9.894;2022-08-21T04:14:06;7.57;;;3.10;;
21780;SDS011;52576;53.614;9.894;2022-08-21T04:15:10;10.20;;;3.35;;
21780;SDS011;52576;53.614;9.894;2022-08-21T04:16:14;7.15;;;3.30;;
21780;SDS011;52576;53.614;9.894;2022-08-21T04:17:17;9.00;;;3.40;;
21780;SDS011;52576;53.614;9.894;2022-08-21T04:18:19;5.28;;;2.50;;
21780;SDS011;52576;53.614;9.894;2022-08-21T04:19:22;8.57;;;3.05;;
21780;SDS011;52576;53.614;9.894;2022-08-21T04:20:25;6.22;;;3.05;;
21780;SDS011;52576;53.614;9.894;2022-08-21T04:21:30;8.48;;;3.35;;
21780;SDS011;52576;53.614;9.894;2022-08-21T04:22:36;6.55;;;2.97;;
21780;SDS011;52576;53.614;9.894;2022-08-21T04:23:40;7.57;;;3.60;;
21780;SDS011;52576;53.614;9.894;2022-08-21T04:24:43;8.23;;;3.38;;
21780;SDS011;52576;53.614;9.894;2022-08-21T04:25:46;5.88;;;2.67;;
21780;SDS011;52576;53.614;9.894;2022-08-21T04:26:49;14.15;;;3.15;;
21780;SDS011;52576;53.614;9.894;2022-08-21T04:27:51;8.50;;;3.10;;
21780;SDS011;52576;53.614;9.894;2022-08-21T04:28:55;6.90;;;3.22;;
21780;SDS011;52576;53.614;9.894;2022-08-21T04:29:58;13.07;;;3.60;;
21780;SDS011;52576;53.614;9.894;2022-08-21T04:31:03;6.97;;;3.13;;
21780;SDS011;52576;53.614;9.894;2022-08-21T04:32:06;10.90;;;3.30;;
21780;SDS011;52576;53.614;9.894;2022-08-21T04:33:09;8.75;;;3.40;;
21780;SDS011;52576;53.614;9.894;2022-08-21T04:34:11;8.50;;;3.22;;
21780;SDS011;52576;53.614;9.894;2022-08-21T04:35:15;10.35;;;3.10;;
21780;SDS011;52576;53.614;9.894;2022-08-21T04:36:19;10.93;;;3.22;;
21780;SDS011;52576;53.614;9.894;2022-08-21T04:37:25;6.22;;;3.05;;
21780;SDS011;52576;53.614;9.894;2022-08-21T04:38:27;8.90;;;3.00;;
21780;SDS011;52576;53.614;9.894;2022-08-21T04:39:38;6.93;;;2.83;;
21780;SDS011;52576;53.614;9.894;2022-08-21T04:40:40;8.45;;;3.10;;
21780;SDS011;52576;53.614;9.894;2022-08-21T04:41:43;8.05;;;2.80;;
21780;SDS011;52576;53.614;9.894;2022-08-21T04:42:46;4.90;;;2.83;;
21780;SDS011;52576;53.614;9.894;2022-08-21T04:43:51;7.70;;;3.20;;
21780;SDS011;52576;53.614;9.894;2022-08-21T04:44:54;7.30;;;2.97;;
21780;SDS011;52576;53.614;9.894;2022-08-21T04:45:58;6.20;;;3.20;;
21780;SDS011;52576;53.614;9.894;2022-08-21T04:47:03;7.72;;;3.05;;
21780;SDS011;52576;53.614;9.894;2022-08-21T04:48:08;6.88;;;3.10;;
21780;SDS011;52576;53.614;9.894;2022-08-21T04:49:14;6.85;;;2.88;;
21780;SDS011;52576;53.614;9.894;2022-08-21T04:50:18;10.52;;;3.17;;
21780;SDS011;52576;53.614;9.894;2022-08-21T04:51:37;7.18;;;3.05;;
21780;SDS011;52576;53.614;9.894;2022-08-21T04:52:42;9.77;;;3.50;;
21780;SDS011;52576;53.614;9.894;2022-08-21T04:53:45;6.05;;;3.28;;
21780;SDS011;52576;53.614;9.894;2022-08-21T04:54:53;8.40;;;3.47;;
21780;SDS011;52576;53.614;9.894;2022-08-21T04:55:55;7.07;;;3.28;;
21780;SDS011;52576;53.614;9.894;2022-08-21T04:57:05;6.50;;;3.28;;
21780;SDS011;52576;53.614;9.894;2022-08-21T04:58:10;7.35;;;3.83;;
21780;SDS011;52576;53.614;9.894;2022-08-21T04:59:16;7.65;;;3.00;;
21780;SDS011;52576;53.614;9.894;2022-08-21T05:00:23;7.35;;;3.22;;
21780;SDS011;52576;53.614;9.894;2022-08-21T05:01:27;7.75;;;3.47;;
21780;SDS011;52576;53.614;9.894;2022-08-21T05:02:32;7.13;;;3.45;;
21780;SDS011;52576;53.614;9.894;2022-08-21T05:03:35;6.30;;;3.00;;
21780;SDS011;52576;53.614;9.894;2022-08-21T05:04:47;5.45;;;3.00;;
21780;SDS011;52576;53.614;9.894;2022-08-21T05:05:52;7.10;;;2.97;;
21780;SDS011;52576;53.614;9.894;2022-08-21T05:06:54;9.30;;;3.40;;
21780;SDS011;52576;53.614;9.894;2022-08-21T05:08:00;7.65;;;3.42;;
21780;SDS011;52576;53.614;9.894;2022-08-21T05:09:04;9.70;;;3.13;;
21780;SDS011;52576;53.614;9.894;2022-08-21T05:10:10;6.53;;;3.10;;
21780;SDS011;52576;53.614;9.894;2022-08-21T05:11:14;9.63;;;3.78;;
21780;SDS011;52576;53.614;9.894;2022-08-21T05:12:17;7.15;;;3.60;;
21780;SDS011;52576;53.614;9.894;2022-08-21T05:13:20;7.47;;;3.00;;
21780;SDS011;52576;53.614;9.894;2022-08-21T05:14:23;7.88;;;3.40;;
21780;SDS011;52576;53.614;9.894;2022-08-21T05:15:27;9.05;;;3.45;;
21780;SDS011;52576;53.614;9.894;2022-08-21T05:16:32;7.60;;;3.45;;
21780;SDS011;52576;53.614;9.894;2022-08-21T05:17:39;9.07;;;3.22;;
21780;SDS011;52576;53.614;9.894;2022-08-21T05:18:43;8.27;;;3.13;;
21780;SDS011;52576;53.614;9.894;2022-08-21T05:19:45;10.05;;;3.75;;
21780;SDS011;52576;53.614;9.894;2022-08-21T05:20:48;10.75;;;3.72;;
21780;SDS011;52576;53.614;9.894;2022-08-21T05:21:52;7.60;;;3.60;;
21780;SDS011;52576;53.614;9.894;2022-08-21T05:22:55;6.53;;;3.65;;
21780;SDS011;52576;53.614;9.894;2022-08-21T05:23:58;15.15;;;3.67;;
21780;SDS011;52576;53.614;9.894;2022-08-21T05:25:01;7.57;;;3.47;;
21780;SDS011;52576;53.614;9.894;2022-08-21T05:26:11;7.20;;;3.55;;
21780;SDS011;52576;53.614;9.894;2022-08-21T05:27:19;6.30;;;3.15;;
21780;SDS011;52576;53.614;9.894;2022-08-21T05:28:24;5.70;;;3.50;;
21780;SDS011;52576;53.614;9.894;2022-08-21T05:29:27;6.88;;;3.42;;
21780;SDS011;52576;53.614;9.894;2022-08-21T05:30:33;9.18;;;3.30;;
21780;SDS011;52576;53.614;9.894;2022-08-21T05:31:37;6.15;;;3.60;;
21780;SDS011;52576;53.614;9.894;2022-08-21T05:32:40;6.45;;;3.20;;
21780;SDS011;52576;53.614;9.894;2022-08-21T05:33:44;8.95;;;3.47;;
21780;SDS011;52576;53.614;9.894;2022-08-21T05:34:46;8.73;;;3.67;;
21780;SDS011;52576;53.614;9.894;2022-08-21T05:35:49;7.07;;;3.20;;
21780;SDS011;52576;53.614;9.894;2022-08-21T05:36:53;7.15;;;3.38;;
21780;SDS011;52576;53.614;9.894;2022-08-21T05:37:56;7.70;;;3.83;;
21780;SDS011;52576;53.614;9.894;2022-08-21T05:38:58;9.98;;;3.60;;
21780;SDS011;52576;53.614;9.894;2022-08-21T05:40:02;9.50;;;3.70;;
21780;SDS011;52576;53.614;9.894;2022-08-21T05:41:23;10.38;;;3.55;;
21780;SDS011;52576;53.614;9.894;2022-08-21T05:42:26;6.75;;;3.53;;
21780;SDS011;52576;53.614;9.894;2022-08-21T05:43:29;10.52;;;3.70;;
21780;SDS011;52576;53.614;9.894;2022-08-21T05:44:34;9.63;;;3.80;;
21780;SDS011;52576;53.614;9.894;2022-08-21T05:45:36;9.95;;;4.10;;
21780;SDS011;52576;53.614;9.894;2022-08-21T05:46:44;9.00;;;3.55;;
21780;SDS011;52576;53.614;9.894;2022-08-21T05:47:47;10.63;;;4.25;;
21780;SDS011;52576;53.614;9.894;2022-08-21T05:48:50;8.55;;;3.53;;
21780;SDS011;52576;53.614;9.894;2022-08-21T05:49:53;9.77;;;3.55;;
21780;SDS011;52576;53.614;9.894;2022-08-21T05:50:56;10.30;;;3.60;;
21780;SDS011;52576;53.614;9.894;2022-08-21T05:51:58;9.23;;;3.25;;
21780;SDS011;52576;53.614;9.894;2022-08-21T05:53:02;8.75;;;3.50;;
21780;SDS011;52576;53.614;9.894;2022-08-21T05:54:08;11.45;;;3.60;;
21780;SDS011;52576;53.614;9.894;2022-08-21T05:55:12;10.00;;;3.67;;
21780;SDS011;52576;53.614;9.894;2022-08-21T05:56:14;8.27;;;3.67;;
21780;SDS011;52576;53.614;9.894;2022-08-21T05:57:18;9.93;;;3.90;;
21780;SDS011;52576;53.614;9.894;2022-08-21T05:58:21;10.68;;;3.83;;
21780;SDS011;52576;53.614;9.894;2022-08-21T05:59:24;7.45;;;3.45;;
21780;SDS011;52576;53.614;9.894;2022-08-21T06:00:26;8.77;;;3.60;;
21780;SDS011;52576;53.614;9.894;2022-08-21T06:01:29;9.90;;;3.63;;
21780;SDS011;52576;53.614;9.894;2022-08-21T06:02:33;12.80;;;3.75;;
21780;SDS011;52576;53.614;9.894;2022-08-21T06:03:37;9.45;;;4.07;;
21780;SDS011;52576;53.614;9.894;2022-08-21T06:04:42;9.52;;;3.65;;
21780;SDS011;52576;53.614;9.894;2022-08-21T06:05:44;10.07;;;4.65;;
21780;SDS011;52576;53.614;9.894;2022-08-21T06:06:48;12.20;;;4.22;;
21780;SDS011;52576;53.614;9.894;2022-08-21T06:07:50;14.27;;;4.57;;
21780;SDS011;52576;53.614;9.894;2022-08-21T06:08:53;8.43;;;4.00;;
21780;SDS011;52576;53.614;9.894;2022-08-21T06:09:55;8.45;;;4.05;;
21780;SDS011;52576;53.614;9.894;2022-08-21T06:10:59;9.85;;;4.15;;
21780;SDS011;52576;53.614;9.894;2022-08-21T06:12:03;12.35;;;4.18;;
21780;SDS011;52576;53.614;9.894;2022-08-21T06:13:07;11.52;;;3.90;;
21780;SDS011;52576;53.614;9.894;2022-08-21T06:14:09;9.65;;;3.67;;
21780;SDS011;52576;53.614;9.894;2022-08-21T06:15:12;15.57;;;4.20;;
21780;SDS011;52576;53.614;9.894;2022-08-21T06:16:15;11.13;;;4.25;;
21780;SDS011;52576;53.614;9.894;2022-08-21T06:17:19;8.27;;;3.88;;
21780;SDS011;52576;53.614;9.894;2022-08-21T06:18:23;8.57;;;3.72;;
21780;SDS011;52576;53.614;9.894;2022-08-21T06:19:26;8.90;;;3.80;;
21780;SDS011;52576;53.614;9.894;2022-08-21T06:20:30;10.43;;;3.58;;
21780;SDS011;52576;53.614;9.894;2022-08-21T06:21:33;11.13;;;3.88;;
21780;SDS011;52576;53.614;9.894;2022-08-21T06:22:36;7.50;;;3.40;;
21780;SDS011;52576;53.614;9.894;2022-08-21T06:23:38;6.40;;;3.22;;
21780;SDS011;52576;53.614;9.894;2022-08-21T06:24:44;9.98;;;3.60;;
21780;SDS011;52576;53.614;9.894;2022-08-21T06:25:46;10.38;;;3.97;;